sensor_id;sensor_type;location;lat;lon;timestamp;P1;durP1;ratioP1;P2;durP2;ratioP2
44126;SDS011;29786;50.798;7.302;2023-08-06T00:00:29;4.3;;;3;;
44126;SDS011;29786;50.798;7.302;2023-08-06T00:01:29;5.4;;;3.2;;
44126;SDS011;29786;50.798;7.302;2023-08-06T00:02:28;4.3;;;3;;
44126;SDS011;29786;50.798;7.302;2023-08-06T00:03:28;4.4;;;3.2;;
44126;SDS011;29786;50.798;7.302;2023-08-06T00:04:28;4.8;;;3;;
44126;SDS011;29786;50.798;7.302;2023-08-06T00:05:28;4.5;;;3.2;;
44126;SDS011;29786;50.798;7.302;2023-08-06T00:06:28;4;;;3.3;;
44126;SDS011;29786;50.798;7.302;2023-08-06T00:07:28;3.6;;;3;;
44126;SDS011;29786;50.798;7.302;2023-08-06T00:08:28;4.1;;;3.2;;
44126;SDS011;29786;50.798;7.302;2023-08-06T00:09:30;4.7;;;3.2;;
44126;SDS011;29786;50.798;7.302;2023-08-06T00:10:28;3.5;;;3.1;;
44126;SDS011;29786;50.798;7.302;2023-08-06T00:11:28;3.7;;;3.1;;
44126;SDS011;29786;50.798;7.302;2023-08-06T00:12:29;3.5;;;3.1;;
44126;SDS011;29786;50.798;7.302;2023-08-06T00:13:28;4.4;;;3.2;;
44126;SDS011;29786;50.798;7.302;2023-08-06T00:14:28;5;;;3.1;;
44126;SDS011;29786;50.798;7.302;2023-08-06T00:15:29;4.9;;;3.3;;
44126;SDS011;29786;50.798;7.302;2023-08-06T00:16:29;3.7;;;3.3;;
44126;SDS011;29786;50.798;7.302;2023-08-06T00:17:29;5.7;;;3.3;;
44126;SDS011;29786;50.798;7.302;2023-08-06T00:18:29;4.5;;;3.1;;
44126;SDS011;29786;50.798;7.302;2023-08-06T00:19:28;4.8;;;3.1;;
44126;SDS011;29786;50.798;7.302;2023-08-06T00:20:29;5.1;;;3.1;;
44126;SDS011;29786;50.798;7.302;2023-08-06T00:21:28;3.8;;;3.4;;
44126;SDS011;29786;50.798;7.302;2023-08-06T00:22:28;5;;;3.3;;
44126;SDS011;29786;50.798;7.302;2023-08-06T00:23:28;5.5;;;3.2;;
44126;SDS011;29786;50.798;7.302;2023-08-06T00:24:28;6;;;3.2;;
44126;SDS011;29786;50.798;7.302;2023-08-06T00:25:29;4.6;;;3.2;;
44126;SDS011;29786;50.798;7.302;2023-08-06T00:26:29;5.3;;;3.1;;
44126;SDS011;29786;50.798;7.302;2023-08-06T00:27:29;4.4;;;3.1;;
44126;SDS011;29786;50.798;7.302;2023-08-06T00:28:28;6;;;3.3;;
44126;SDS011;29786;50.798;7.302;2023-08-06T00:29:27;6.2;;;3.7;;
44126;SDS011;29786;50.798;7.302;2023-08-06T00:30:29;6.3;;;3.5;;
44126;SDS011;29786;50.798;7.302;2023-08-06T00:31:29;3.3;;;3;;
44126;SDS011;29786;50.798;7.302;2023-08-06T00:32:28;3.7;;;3.1;;
44126;SDS011;29786;50.798;7.302;2023-08-06T00:33:28;4.4;;;3;;
44126;SDS011;29786;50.798;7.302;2023-08-06T00:34:29;6.1;;;3.4;;
44126;SDS011;29786;50.798;7.302;2023-08-06T00:35:29;7.1;;;3.5;;
44126;SDS011;29786;50.798;7.302;2023-08-06T00:36:28;4.8;;;3.7;;
44126;SDS011;29786;50.798;7.302;2023-08-06T00:37:29;4;;;3.6;;
44126;SDS011;29786;50.798;7.302;2023-08-06T00:38:28;5.9;;;3.4;;
44126;SDS011;29786;50.798;7.302;2023-08-06T00:39:28;4.6;;;3.7;;
44126;SDS011;29786;50.798;7.302;2023-08-06T00:40:28;6.4;;;3.8;;
44126;SDS011;29786;50.798;7.302;2023-08-06T00:41:29;6.6;;;4;;
44126;SDS011;29786;50.798;7.302;2023-08-06T00:42:29;5.1;;;3.1;;
44126;SDS011;29786;50.798;7.302;2023-08-06T00:43:28;4.1;;;3;;
44126;SDS011;29786;50.798;7.302;2023-08-06T00:44:28;6;;;3.5;;
44126;SDS011;29786;50.798;7.302;2023-08-06T00:45:29;5.8;;;3.2;;
44126;SDS011;29786;50.798;7.302;2023-08-06T00:46:29;5.5;;;3.2;;
44126;SDS011;29786;50.798;7.302;2023-08-06T00:47:28;3.7;;;3.2;;
44126;SDS011;29786;50.798;7.302;2023-08-06T00:48:28;5.4;;;3.4;;
44126;SDS011;29786;50.798;7.302;2023-08-06T00:49:29;3.6;;;3.2;;
44126;SDS011;29786;50.798;7.302;2023-08-06T00:50:29;5.8;;;3.8;;
44126;SDS011;29786;50.798;7.302;2023-08-06T00:51:29;4.6;;;3.6;;
44126;SDS011;29786;50.798;7.302;2023-08-06T00:52:29;5.6;;;3;;
44126;SDS011;29786;50.798;7.302;2023-08-06T00:54:28;4.1;;;3.6;;
44126;SDS011;29786;50.798;7.302;2023-08-06T00:55:29;5;;;3.4;;
44126;SDS011;29786;50.798;7.302;2023-08-06T00:56:29;5;;;3.2;;
44126;SDS011;29786;50.798;7.302;2023-08-06T00:57:29;5.2;;;3.7;;
44126;SDS011;29786;50.798;7.302;2023-08-06T00:58:29;5;;;3.4;;
44126;SDS011;29786;50.798;7.302;2023-08-06T00:59:29;4.4;;;3.2;;
44126;SDS011;29786;50.798;7.302;2023-08-06T01:00:28;4.3;;;3.4;;
44126;SDS011;29786;50.798;7.302;2023-08-06T01:01:29;4.1;;;3.4;;
44126;SDS011;29786;50.798;7.302;2023-08-06T01:02:29;6.2;;;3.2;;
44126;SDS011;29786;50.798;7.302;2023-08-06T01:03:28;4.1;;;3.2;;
44126;SDS011;29786;50.798;7.302;2023-08-06T01:04:29;4.7;;;3.1;;
44126;SDS011;29786;50.798;7.302;2023-08-06T01:05:28;3.9;;;3.2;;
44126;SDS011;29786;50.798;7.302;2023-08-06T01:06:33;4.7;;;3.4;;
44126;SDS011;29786;50.798;7.302;2023-08-06T01:07:33;4.5;;;3.3;;
44126;SDS011;29786;50.798;7.302;2023-08-06T01:08:30;4.3;;;3.4;;
44126;SDS011;29786;50.798;7.302;2023-08-06T01:09:45;3.5;;;3.2;;
44126;SDS011;29786;50.798;7.302;2023-08-06T01:11:31;6.1;;;3.4;;
44126;SDS011;29786;50.798;7.302;2023-08-06T01:11:48;4.4;;;3.6;;
44126;SDS011;29786;50.798;7.302;2023-08-06T01:13:32;4.6;;;3.6;;
44126;SDS011;29786;50.798;7.302;2023-08-06T01:14:31;4.1;;;3.1;;
44126;SDS011;29786;50.798;7.302;2023-08-06T01:15:29;4.9;;;3.2;;
44126;SDS011;29786;50.798;7.302;2023-08-06T01:16:29;5;;;3.4;;
44126;SDS011;29786;50.798;7.302;2023-08-06T01:17:28;5;;;3.1;;
44126;SDS011;29786;50.798;7.302;2023-08-06T01:18:28;4.8;;;3.3;;
44126;SDS011;29786;50.798;7.302;2023-08-06T01:19:29;3.4;;;2.9;;
44126;SDS011;29786;50.798;7.302;2023-08-06T01:20:29;6;;;3;;
44126;SDS011;29786;50.798;7.302;2023-08-06T01:21:28;3.9;;;2.9;;
44126;SDS011;29786;50.798;7.302;2023-08-06T01:22:29;4.4;;;3.4;;
44126;SDS011;29786;50.798;7.302;2023-08-06T01:23:28;3.5;;;3.2;;
44126;SDS011;29786;50.798;7.302;2023-08-06T01:24:29;4.4;;;3;;
44126;SDS011;29786;50.798;7.302;2023-08-06T01:25:30;3.7;;;2.9;;
44126;SDS011;29786;50.798;7.302;2023-08-06T01:26:30;3;;;2.7;;
44126;SDS011;29786;50.798;7.302;2023-08-06T01:27:38;3.4;;;3.1;;
44126;SDS011;29786;50.798;7.302;2023-08-06T01:28:33;5.3;;;3;;
44126;SDS011;29786;50.798;7.302;2023-08-06T01:29:31;3.7;;;3;;
44126;SDS011;29786;50.798;7.302;2023-08-06T01:30:29;5.2;;;3;;
44126;SDS011;29786;50.798;7.302;2023-08-06T01:31:32;4.6;;;3;;
44126;SDS011;29786;50.798;7.302;2023-08-06T01:32:29;4;;;3.1;;
44126;SDS011;29786;50.798;7.302;2023-08-06T01:33:28;3.6;;;3.1;;
44126;SDS011;29786;50.798;7.302;2023-08-06T01:34:31;4.3;;;2.8;;
44126;SDS011;29786;50.798;7.302;2023-08-06T01:35:29;4.6;;;3.1;;
44126;SDS011;29786;50.798;7.302;2023-08-06T01:36:28;5.8;;;3.7;;
44126;SDS011;29786;50.798;7.302;2023-08-06T01:37:28;6.8;;;3.3;;
44126;SDS011;29786;50.798;7.302;2023-08-06T01:38:28;8.4;;;3.9;;
44126;SDS011;29786;50.798;7.302;2023-08-06T01:39:28;5.8;;;3.1;;
44126;SDS011;29786;50.798;7.302;2023-08-06T01:40:28;4.4;;;3;;
44126;SDS011;29786;50.798;7.302;2023-08-06T01:41:27;3.9;;;3.3;;
44126;SDS011;29786;50.798;7.302;2023-08-06T01:42:29;4.1;;;3.1;;
44126;SDS011;29786;50.798;7.302;2023-08-06T01:43:29;4.9;;;3.2;;
44126;SDS011;29786;50.798;7.302;2023-08-06T01:44:28;6.6;;;3.5;;
44126;SDS011;29786;50.798;7.302;2023-08-06T01:45:28;3.9;;;3.1;;
44126;SDS011;29786;50.798;7.302;2023-08-06T01:46:29;3.6;;;3.1;;
44126;SDS011;29786;50.798;7.302;2023-08-06T01:47:29;3;;;2.7;;
44126;SDS011;29786;50.798;7.302;2023-08-06T01:48:29;7.6;;;3.3;;
44126;SDS011;29786;50.798;7.302;2023-08-06T01:49:30;4.1;;;3.3;;
44126;SDS011;29786;50.798;7.302;2023-08-06T01:50:28;5.3;;;3.7;;
44126;SDS011;29786;50.798;7.302;2023-08-06T01:51:29;6;;;3;;
44126;SDS011;29786;50.798;7.302;2023-08-06T01:52:28;4.2;;;3.3;;
44126;SDS011;29786;50.798;7.302;2023-08-06T01:53:29;3.9;;;3.1;;
44126;SDS011;29786;50.798;7.302;2023-08-06T01:54:28;4.1;;;3.3;;
44126;SDS011;29786;50.798;7.302;2023-08-06T01:55:29;8.1;;;3.5;;
44126;SDS011;29786;50.798;7.302;2023-08-06T01:56:29;4.8;;;3.9;;
44126;SDS011;29786;50.798;7.302;2023-08-06T01:57:29;5.6;;;3.6;;
44126;SDS011;29786;50.798;7.302;2023-08-06T01:58:29;3.8;;;2.9;;
44126;SDS011;29786;50.798;7.302;2023-08-06T01:59:29;5;;;3.2;;
44126;SDS011;29786;50.798;7.302;2023-08-06T02:00:29;5.4;;;3;;
44126;SDS011;29786;50.798;7.302;2023-08-06T02:01:28;5;;;3.3;;
44126;SDS011;29786;50.798;7.302;2023-08-06T02:02:28;5;;;3.4;;
44126;SDS011;29786;50.798;7.302;2023-08-06T02:03:28;4;;;3.1;;
44126;SDS011;29786;50.798;7.302;2023-08-06T02:04:29;6.6;;;3.4;;
44126;SDS011;29786;50.798;7.302;2023-08-06T02:05:28;4.5;;;3.3;;
44126;SDS011;29786;50.798;7.302;2023-08-06T02:06:29;4.1;;;3.1;;
44126;SDS011;29786;50.798;7.302;2023-08-06T02:07:29;4.9;;;3;;
44126;SDS011;29786;50.798;7.302;2023-08-06T02:08:28;5.2;;;3.2;;
44126;SDS011;29786;50.798;7.302;2023-08-06T02:09:28;5;;;3.2;;
44126;SDS011;29786;50.798;7.302;2023-08-06T02:10:29;6.3;;;3.2;;
44126;SDS011;29786;50.798;7.302;2023-08-06T02:11:29;5;;;3.5;;
44126;SDS011;29786;50.798;7.302;2023-08-06T02:12:28;4.8;;;3;;
44126;SDS011;29786;50.798;7.302;2023-08-06T02:13:28;5.1;;;3.7;;
44126;SDS011;29786;50.798;7.302;2023-08-06T02:14:29;5.2;;;3.3;;
44126;SDS011;29786;50.798;7.302;2023-08-06T02:15:28;4.5;;;3.3;;
44126;SDS011;29786;50.798;7.302;2023-08-06T02:16:28;5;;;3.1;;
44126;SDS011;29786;50.798;7.302;2023-08-06T02:17:28;4.1;;;3.3;;
44126;SDS011;29786;50.798;7.302;2023-08-06T02:18:28;3.9;;;3.3;;
44126;SDS011;29786;50.798;7.302;2023-08-06T02:19:28;4.2;;;3.2;;
44126;SDS011;29786;50.798;7.302;2023-08-06T02:20:29;4;;;3.1;;
44126;SDS011;29786;50.798;7.302;2023-08-06T02:21:29;5.1;;;3.1;;
44126;SDS011;29786;50.798;7.302;2023-08-06T02:22:28;4.7;;;3.3;;
44126;SDS011;29786;50.798;7.302;2023-08-06T02:23:28;4.6;;;3.2;;
44126;SDS011;29786;50.798;7.302;2023-08-06T02:24:28;4;;;3.1;;
44126;SDS011;29786;50.798;7.302;2023-08-06T02:25:29;5.6;;;3.2;;
44126;SDS011;29786;50.798;7.302;2023-08-06T02:27:28;4.5;;;3;;
44126;SDS011;29786;50.798;7.302;2023-08-06T02:28:29;3.2;;;2.9;;
44126;SDS011;29786;50.798;7.302;2023-08-06T02:29:28;4.1;;;2.9;;
44126;SDS011;29786;50.798;7.302;2023-08-06T02:30:29;3.7;;;3;;
44126;SDS011;29786;50.798;7.302;2023-08-06T02:31:28;4.4;;;3.4;;
44126;SDS011;29786;50.798;7.302;2023-08-06T02:32:28;6.3;;;3.4;;
44126;SDS011;29786;50.798;7.302;2023-08-06T02:33:28;5.1;;;3.2;;
44126;SDS011;29786;50.798;7.302;2023-08-06T02:34:28;5;;;3.1;;
44126;SDS011;29786;50.798;7.302;2023-08-06T02:35:28;5.4;;;2.9;;
44126;SDS011;29786;50.798;7.302;2023-08-06T02:36:28;5.3;;;2.8;;
44126;SDS011;29786;50.798;7.302;2023-08-06T02:37:28;4.1;;;3.2;;
44126;SDS011;29786;50.798;7.302;2023-08-06T02:38:28;5.5;;;3.2;;
44126;SDS011;29786;50.798;7.302;2023-08-06T02:39:29;3.5;;;3;;
44126;SDS011;29786;50.798;7.302;2023-08-06T02:40:29;5.3;;;3.2;;
44126;SDS011;29786;50.798;7.302;2023-08-06T02:41:28;3.5;;;2.9;;
44126;SDS011;29786;50.798;7.302;2023-08-06T02:42:28;4.1;;;3.1;;
44126;SDS011;29786;50.798;7.302;2023-08-06T02:43:29;3.5;;;3.2;;
44126;SDS011;29786;50.798;7.302;2023-08-06T02:44:28;4.4;;;2.9;;
44126;SDS011;29786;50.798;7.302;2023-08-06T02:45:29;4.6;;;3.1;;
44126;SDS011;29786;50.798;7.302;2023-08-06T02:46:29;6.4;;;3.4;;
44126;SDS011;29786;50.798;7.302;2023-08-06T02:47:28;5.4;;;3;;
44126;SDS011;29786;50.798;7.302;2023-08-06T02:48:28;4.5;;;3.3;;
44126;SDS011;29786;50.798;7.302;2023-08-06T02:49:28;4.1;;;3.3;;
44126;SDS011;29786;50.798;7.302;2023-08-06T02:50:28;6.3;;;3.9;;
44126;SDS011;29786;50.798;7.302;2023-08-06T02:51:28;5.3;;;3.2;;
44126;SDS011;29786;50.798;7.302;2023-08-06T02:52:28;4.8;;;3.2;;
44126;SDS011;29786;50.798;7.302;2023-08-06T02:53:28;5.3;;;3.2;;
44126;SDS011;29786;50.798;7.302;2023-08-06T02:54:29;4.1;;;3.2;;
44126;SDS011;29786;50.798;7.302;2023-08-06T02:55:28;4.1;;;3.1;;
44126;SDS011;29786;50.798;7.302;2023-08-06T02:56:29;5.4;;;3.2;;
44126;SDS011;29786;50.798;7.302;2023-08-06T02:57:29;6.7;;;3.5;;
44126;SDS011;29786;50.798;7.302;2023-08-06T02:58:28;7.2;;;3.4;;
44126;SDS011;29786;50.798;7.302;2023-08-06T02:59:28;4;;;3.2;;
44126;SDS011;29786;50.798;7.302;2023-08-06T03:00:28;4.6;;;3.2;;
44126;SDS011;29786;50.798;7.302;2023-08-06T03:01:29;5.9;;;3;;
44126;SDS011;29786;50.798;7.302;2023-08-06T03:02:28;6;;;3.1;;
44126;SDS011;29786;50.798;7.302;2023-08-06T03:03:29;5.4;;;3.1;;
44126;SDS011;29786;50.798;7.302;2023-08-06T03:04:30;5.9;;;3.4;;
44126;SDS011;29786;50.798;7.302;2023-08-06T03:05:29;3.5;;;3;;
44126;SDS011;29786;50.798;7.302;2023-08-06T03:06:28;4.1;;;2.8;;
44126;SDS011;29786;50.798;7.302;2023-08-06T03:07:28;4.3;;;3.1;;
44126;SDS011;29786;50.798;7.302;2023-08-06T03:08:29;5;;;3.1;;
44126;SDS011;29786;50.798;7.302;2023-08-06T03:09:28;4.6;;;2.9;;
44126;SDS011;29786;50.798;7.302;2023-08-06T03:10:29;6.4;;;3.3;;
44126;SDS011;29786;50.798;7.302;2023-08-06T03:11:28;4.7;;;2.8;;
44126;SDS011;29786;50.798;7.302;2023-08-06T03:12:28;4.2;;;2.9;;
44126;SDS011;29786;50.798;7.302;2023-08-06T03:13:28;6;;;2.9;;
44126;SDS011;29786;50.798;7.302;2023-08-06T03:14:28;3.1;;;2.8;;
44126;SDS011;29786;50.798;7.302;2023-08-06T03:15:29;4.7;;;3;;
44126;SDS011;29786;50.798;7.302;2023-08-06T03:16:29;6.3;;;3;;
44126;SDS011;29786;50.798;7.302;2023-08-06T03:17:28;3.4;;;2.8;;
44126;SDS011;29786;50.798;7.302;2023-08-06T03:18:29;6.7;;;3.3;;
44126;SDS011;29786;50.798;7.302;2023-08-06T03:19:28;4.2;;;3.3;;
44126;SDS011;29786;50.798;7.302;2023-08-06T03:20:28;3.8;;;2.8;;
44126;SDS011;29786;50.798;7.302;2023-08-06T03:21:29;4.1;;;2.8;;
44126;SDS011;29786;50.798;7.302;2023-08-06T03:22:29;5.9;;;2.8;;
44126;SDS011;29786;50.798;7.302;2023-08-06T03:23:29;5.9;;;3.3;;
44126;SDS011;29786;50.798;7.302;2023-08-06T03:24:28;4.2;;;2.8;;
44126;SDS011;29786;50.798;7.302;2023-08-06T03:25:28;3.5;;;3.1;;
44126;SDS011;29786;50.798;7.302;2023-08-06T03:26:28;5.7;;;2.9;;
44126;SDS011;29786;50.798;7.302;2023-08-06T03:27:28;4.8;;;2.8;;
44126;SDS011;29786;50.798;7.302;2023-08-06T03:28:28;4.1;;;3;;
44126;SDS011;29786;50.798;7.302;2023-08-06T03:29:29;4.7;;;2.9;;
44126;SDS011;29786;50.798;7.302;2023-08-06T03:30:28;3.6;;;2.8;;
44126;SDS011;29786;50.798;7.302;2023-08-06T03:31:29;6.1;;;3.1;;
44126;SDS011;29786;50.798;7.302;2023-08-06T03:32:29;3.4;;;2.8;;
44126;SDS011;29786;50.798;7.302;2023-08-06T03:33:29;5.8;;;3.2;;
44126;SDS011;29786;50.798;7.302;2023-08-06T03:34:28;5.9;;;3.8;;
44126;SDS011;29786;50.798;7.302;2023-08-06T03:35:28;4;;;2.8;;
44126;SDS011;29786;50.798;7.302;2023-08-06T03:36:28;4.1;;;2.8;;
44126;SDS011;29786;50.798;7.302;2023-08-06T03:37:29;9.6;;;3;;
44126;SDS011;29786;50.798;7.302;2023-08-06T03:38:28;4.3;;;2.7;;
44126;SDS011;29786;50.798;7.302;2023-08-06T03:39:29;4.9;;;2.9;;
44126;SDS011;29786;50.798;7.302;2023-08-06T03:40:29;3.7;;;2.8;;
44126;SDS011;29786;50.798;7.302;2023-08-06T03:41:28;5.5;;;3.1;;
44126;SDS011;29786;50.798;7.302;2023-08-06T03:42:28;4.1;;;2.9;;
44126;SDS011;29786;50.798;7.302;2023-08-06T03:43:28;6;;;3.2;;
44126;SDS011;29786;50.798;7.302;2023-08-06T03:44:28;3.4;;;3;;
44126;SDS011;29786;50.798;7.302;2023-08-06T03:45:29;3.6;;;3.1;;
44126;SDS011;29786;50.798;7.302;2023-08-06T03:46:28;4.7;;;2.9;;
44126;SDS011;29786;50.798;7.302;2023-08-06T03:47:28;5.1;;;2.9;;
44126;SDS011;29786;50.798;7.302;2023-08-06T03:48:28;4.6;;;3;;
44126;SDS011;29786;50.798;7.302;2023-08-06T03:49:29;6.3;;;3;;
44126;SDS011;29786;50.798;7.302;2023-08-06T03:50:28;4.3;;;2.6;;
44126;SDS011;29786;50.798;7.302;2023-08-06T03:51:29;6.3;;;3;;
44126;SDS011;29786;50.798;7.302;2023-08-06T03:52:29;4.8;;;2.9;;
44126;SDS011;29786;50.798;7.302;2023-08-06T03:53:29;4.6;;;3;;
44126;SDS011;29786;50.798;7.302;2023-08-06T03:54:28;5.3;;;3.3;;
44126;SDS011;29786;50.798;7.302;2023-08-06T03:55:28;3.4;;;2.8;;
44126;SDS011;29786;50.798;7.302;2023-08-06T03:56:29;3;;;2.7;;
44126;SDS011;29786;50.798;7.302;2023-08-06T03:57:28;3.5;;;2.9;;
44126;SDS011;29786;50.798;7.302;2023-08-06T03:58:28;4.4;;;2.7;;
44126;SDS011;29786;50.798;7.302;2023-08-06T03:59:28;6.6;;;3.1;;
44126;SDS011;29786;50.798;7.302;2023-08-06T04:00:28;7.7;;;2.8;;
44126;SDS011;29786;50.798;7.302;2023-08-06T04:01:29;4.7;;;2.5;;
44126;SDS011;29786;50.798;7.302;2023-08-06T04:02:27;4.6;;;2.9;;
44126;SDS011;29786;50.798;7.302;2023-08-06T04:03:28;3.4;;;2.8;;
44126;SDS011;29786;50.798;7.302;2023-08-06T04:04:28;5.2;;;2.8;;
44126;SDS011;29786;50.798;7.302;2023-08-06T04:05:30;7.2;;;3.1;;
44126;SDS011;29786;50.798;7.302;2023-08-06T04:06:29;5.1;;;2.9;;
44126;SDS011;29786;50.798;7.302;2023-08-06T04:07:29;3.7;;;2.8;;
44126;SDS011;29786;50.798;7.302;2023-08-06T04:08:28;5.5;;;2.9;;
44126;SDS011;29786;50.798;7.302;2023-08-06T04:09:29;5.2;;;3;;
44126;SDS011;29786;50.798;7.302;2023-08-06T04:10:29;3.9;;;2.8;;
44126;SDS011;29786;50.798;7.302;2023-08-06T04:11:28;6.1;;;2.9;;
44126;SDS011;29786;50.798;7.302;2023-08-06T04:12:28;5.5;;;3;;
44126;SDS011;29786;50.798;7.302;2023-08-06T04:13:29;6.1;;;2.8;;
44126;SDS011;29786;50.798;7.302;2023-08-06T04:14:28;4.5;;;2.6;;
44126;SDS011;29786;50.798;7.302;2023-08-06T04:15:29;4.6;;;3;;
44126;SDS011;29786;50.798;7.302;2023-08-06T04:16:29;3.8;;;3.2;;
44126;SDS011;29786;50.798;7.302;2023-08-06T04:17:28;5;;;3;;
44126;SDS011;29786;50.798;7.302;2023-08-06T04:18:29;7;;;3.1;;
44126;SDS011;29786;50.798;7.302;2023-08-06T04:19:28;5.7;;;3;;
44126;SDS011;29786;50.798;7.302;2023-08-06T04:20:28;5.5;;;3.1;;
44126;SDS011;29786;50.798;7.302;2023-08-06T04:21:28;4.7;;;3.4;;
44126;SDS011;29786;50.798;7.302;2023-08-06T04:22:29;5;;;2.8;;
44126;SDS011;29786;50.798;7.302;2023-08-06T04:23:29;5.1;;;3.1;;
44126;SDS011;29786;50.798;7.302;2023-08-06T04:24:29;6.2;;;2.8;;
44126;SDS011;29786;50.798;7.302;2023-08-06T04:25:29;4;;;2.9;;
44126;SDS011;29786;50.798;7.302;2023-08-06T04:26:28;5.2;;;2.8;;
44126;SDS011;29786;50.798;7.302;2023-08-06T04:27:28;4.6;;;3.1;;
44126;SDS011;29786;50.798;7.302;2023-08-06T04:28:29;4.7;;;2.8;;
44126;SDS011;29786;50.798;7.302;2023-08-06T04:29:28;3.7;;;2.9;;
44126;SDS011;29786;50.798;7.302;2023-08-06T04:30:28;4.2;;;2.7;;
44126;SDS011;29786;50.798;7.302;2023-08-06T04:31:29;3.5;;;2.8;;
44126;SDS011;29786;50.798;7.302;2023-08-06T04:32:30;5.3;;;3.1;;
44126;SDS011;29786;50.798;7.302;2023-08-06T04:33:28;4.4;;;2.8;;
44126;SDS011;29786;50.798;7.302;2023-08-06T04:34:28;4.4;;;2.8;;
44126;SDS011;29786;50.798;7.302;2023-08-06T04:35:29;7.1;;;3;;
44126;SDS011;29786;50.798;7.302;2023-08-06T04:36:28;6.1;;;2.9;;
44126;SDS011;29786;50.798;7.302;2023-08-06T04:37:29;4;;;2.7;;
44126;SDS011;29786;50.798;7.302;2023-08-06T04:38:28;6;;;3.1;;
44126;SDS011;29786;50.798;7.302;2023-08-06T04:39:29;5.5;;;3;;
44126;SDS011;29786;50.798;7.302;2023-08-06T04:40:28;4.7;;;2.9;;
44126;SDS011;29786;50.798;7.302;2023-08-06T04:41:29;4.1;;;2.8;;
44126;SDS011;29786;50.798;7.302;2023-08-06T04:42:28;5.2;;;2.8;;
44126;SDS011;29786;50.798;7.302;2023-08-06T04:43:28;4.7;;;2.9;;
44126;SDS011;29786;50.798;7.302;2023-08-06T04:44:29;5.5;;;2.7;;
44126;SDS011;29786;50.798;7.302;2023-08-06T04:45:29;5.5;;;3;;
44126;SDS011;29786;50.798;7.302;2023-08-06T04:46:28;6.4;;;3.1;;
44126;SDS011;29786;50.798;7.302;2023-08-06T04:47:29;4.4;;;2.9;;
44126;SDS011;29786;50.798;7.302;2023-08-06T04:48:28;4.4;;;2.8;;
44126;SDS011;29786;50.798;7.302;2023-08-06T04:49:28;4.4;;;2.7;;
44126;SDS011;29786;50.798;7.302;2023-08-06T04:50:29;4.5;;;2.6;;
44126;SDS011;29786;50.798;7.302;2023-08-06T04:51:28;6;;;2.7;;
44126;SDS011;29786;50.798;7.302;2023-08-06T04:52:29;4.1;;;2.9;;
44126;SDS011;29786;50.798;7.302;2023-08-06T04:53:28;4.5;;;3.1;;
44126;SDS011;29786;50.798;7.302;2023-08-06T04:54:29;6.4;;;2.8;;
44126;SDS011;29786;50.798;7.302;2023-08-06T04:55:28;4.2;;;2.8;;
44126;SDS011;29786;50.798;7.302;2023-08-06T04:56:28;5.1;;;2.9;;
44126;SDS011;29786;50.798;7.302;2023-08-06T04:57:29;6.1;;;3.2;;
44126;SDS011;29786;50.798;7.302;2023-08-06T04:58:28;6.3;;;2.9;;
44126;SDS011;29786;50.798;7.302;2023-08-06T04:59:28;5.8;;;2.9;;
44126;SDS011;29786;50.798;7.302;2023-08-06T05:00:28;5;;;3.1;;
44126;SDS011;29786;50.798;7.302;2023-08-06T05:01:28;4.5;;;2.8;;
44126;SDS011;29786;50.798;7.302;2023-08-06T05:02:28;4.2;;;2.7;;
44126;SDS011;29786;50.798;7.302;2023-08-06T05:03:28;4.3;;;2.8;;
44126;SDS011;29786;50.798;7.302;2023-08-06T05:04:29;6.6;;;3.2;;
44126;SDS011;29786;50.798;7.302;2023-08-06T05:05:28;5.3;;;2.9;;
44126;SDS011;29786;50.798;7.302;2023-08-06T05:06:29;3.7;;;2.7;;
44126;SDS011;29786;50.798;7.302;2023-08-06T05:07:28;5.2;;;2.4;;
44126;SDS011;29786;50.798;7.302;2023-08-06T05:08:28;5.1;;;2.9;;
44126;SDS011;29786;50.798;7.302;2023-08-06T05:09:28;5.4;;;2.8;;
44126;SDS011;29786;50.798;7.302;2023-08-06T05:10:29;6.4;;;3.1;;
44126;SDS011;29786;50.798;7.302;2023-08-06T05:11:29;3.4;;;2.6;;
44126;SDS011;29786;50.798;7.302;2023-08-06T05:12:28;4.8;;;2.9;;
44126;SDS011;29786;50.798;7.302;2023-08-06T05:13:29;6.7;;;3.2;;
44126;SDS011;29786;50.798;7.302;2023-08-06T05:14:28;6.2;;;2.7;;
44126;SDS011;29786;50.798;7.302;2023-08-06T05:15:29;5.1;;;3;;
44126;SDS011;29786;50.798;7.302;2023-08-06T05:16:29;3.8;;;2.7;;
44126;SDS011;29786;50.798;7.302;2023-08-06T05:17:28;5.4;;;2.6;;
44126;SDS011;29786;50.798;7.302;2023-08-06T05:18:29;3.7;;;2.9;;
44126;SDS011;29786;50.798;7.302;2023-08-06T05:19:28;6.3;;;3.1;;
44126;SDS011;29786;50.798;7.302;2023-08-06T05:20:29;3.5;;;2.6;;
44126;SDS011;29786;50.798;7.302;2023-08-06T05:21:29;4.1;;;2.6;;
44126;SDS011;29786;50.798;7.302;2023-08-06T05:22:28;7.8;;;2.9;;
44126;SDS011;29786;50.798;7.302;2023-08-06T05:23:31;4.1;;;2.8;;
44126;SDS011;29786;50.798;7.302;2023-08-06T05:24:52;3.7;;;2.6;;
44126;SDS011;29786;50.798;7.302;2023-08-06T05:25:31;5.1;;;2.6;;
44126;SDS011;29786;50.798;7.302;2023-08-06T05:26:31;5.7;;;2.8;;
44126;SDS011;29786;50.798;7.302;2023-08-06T05:27:31;5.1;;;2.6;;
44126;SDS011;29786;50.798;7.302;2023-08-06T05:28:31;3.8;;;2.3;;
44126;SDS011;29786;50.798;7.302;2023-08-06T05:29:31;3.7;;;2.7;;
44126;SDS011;29786;50.798;7.302;2023-08-06T05:30:31;7.7;;;3.4;;
44126;SDS011;29786;50.798;7.302;2023-08-06T05:31:31;3.7;;;2.9;;
44126;SDS011;29786;50.798;7.302;2023-08-06T05:32:31;3.5;;;2.5;;
44126;SDS011;29786;50.798;7.302;2023-08-06T05:34:10;3.6;;;2.4;;
44126;SDS011;29786;50.798;7.302;2023-08-06T05:34:31;4.4;;;2.7;;
44126;SDS011;29786;50.798;7.302;2023-08-06T05:35:31;4.9;;;3;;
44126;SDS011;29786;50.798;7.302;2023-08-06T05:36:31;4.7;;;2.8;;
44126;SDS011;29786;50.798;7.302;2023-08-06T05:37:31;4.2;;;2.9;;
44126;SDS011;29786;50.798;7.302;2023-08-06T05:38:31;4.3;;;2.7;;
44126;SDS011;29786;50.798;7.302;2023-08-06T05:40:32;3.4;;;2.5;;
44126;SDS011;29786;50.798;7.302;2023-08-06T05:41:31;4.5;;;2.9;;
44126;SDS011;29786;50.798;7.302;2023-08-06T05:42:31;3.8;;;2.5;;
44126;SDS011;29786;50.798;7.302;2023-08-06T05:43:31;3.5;;;2.4;;
44126;SDS011;29786;50.798;7.302;2023-08-06T05:44:31;3.6;;;2.3;;
44126;SDS011;29786;50.798;7.302;2023-08-06T05:45:31;3.4;;;2.1;;
44126;SDS011;29786;50.798;7.302;2023-08-06T05:46:31;6.1;;;2.2;;
44126;SDS011;29786;50.798;7.302;2023-08-06T05:47:31;2.6;;;1.9;;
44126;SDS011;29786;50.798;7.302;2023-08-06T05:48:31;5.1;;;2.4;;
44126;SDS011;29786;50.798;7.302;2023-08-06T05:49:31;3.6;;;2;;
44126;SDS011;29786;50.798;7.302;2023-08-06T05:50:31;3.1;;;2.2;;
44126;SDS011;29786;50.798;7.302;2023-08-06T05:51:31;2.4;;;2.2;;
44126;SDS011;29786;50.798;7.302;2023-08-06T05:52:31;2.9;;;2.2;;
44126;SDS011;29786;50.798;7.302;2023-08-06T05:53:31;2.9;;;2.1;;
44126;SDS011;29786;50.798;7.302;2023-08-06T05:54:31;4.1;;;2.5;;
44126;SDS011;29786;50.798;7.302;2023-08-06T05:55:31;2.8;;;2.5;;
44126;SDS011;29786;50.798;7.302;2023-08-06T05:56:31;2.5;;;1.8;;
44126;SDS011;29786;50.798;7.302;2023-08-06T05:57:31;3;;;2.1;;
44126;SDS011;29786;50.798;7.302;2023-08-06T05:58:31;3.1;;;2;;
44126;SDS011;29786;50.798;7.302;2023-08-06T05:59:31;2.3;;;2.1;;
44126;SDS011;29786;50.798;7.302;2023-08-06T06:00:31;3.7;;;2.1;;
44126;SDS011;29786;50.798;7.302;2023-08-06T06:01:31;2.4;;;2;;
44126;SDS011;29786;50.798;7.302;2023-08-06T06:02:31;4.8;;;2.1;;
44126;SDS011;29786;50.798;7.302;2023-08-06T06:03:31;5.6;;;2.4;;
44126;SDS011;29786;50.798;7.302;2023-08-06T06:04:31;3.8;;;2.4;;
44126;SDS011;29786;50.798;7.302;2023-08-06T06:05:31;2.5;;;2.1;;
44126;SDS011;29786;50.798;7.302;2023-08-06T06:06:31;2.9;;;2.1;;
44126;SDS011;29786;50.798;7.302;2023-08-06T06:07:31;2.6;;;2;;
44126;SDS011;29786;50.798;7.302;2023-08-06T06:08:31;2.4;;;1.8;;
44126;SDS011;29786;50.798;7.302;2023-08-06T06:09:31;2;;;1.8;;
44126;SDS011;29786;50.798;7.302;2023-08-06T06:10:31;2.3;;;2;;
44126;SDS011;29786;50.798;7.302;2023-08-06T06:11:31;4.6;;;2;;
44126;SDS011;29786;50.798;7.302;2023-08-06T06:12:31;2.2;;;2;;
44126;SDS011;29786;50.798;7.302;2023-08-06T06:13:31;2.1;;;1.7;;
44126;SDS011;29786;50.798;7.302;2023-08-06T06:14:31;2;;;1.8;;
44126;SDS011;29786;50.798;7.302;2023-08-06T06:15:31;2.3;;;1.8;;
44126;SDS011;29786;50.798;7.302;2023-08-06T06:16:31;2.3;;;1.7;;
44126;SDS011;29786;50.798;7.302;2023-08-06T06:17:31;2.3;;;1.9;;
44126;SDS011;29786;50.798;7.302;2023-08-06T06:18:31;2.4;;;1.8;;
44126;SDS011;29786;50.798;7.302;2023-08-06T06:19:31;2.6;;;1.8;;